createdAt,value
2018-06-13T00:00:19.030Z,51.33
2018-06-13T00:02:48.425Z,51.33
2018-06-13T00:05:17.840Z,51.63
2018-06-13T00:07:47.236Z,51.92
2018-06-13T00:10:16.634Z,52.05
2018-06-13T00:12:46.036Z,52.07
2018-06-13T00:15:15.429Z,52.15
2018-06-13T00:17:44.940Z,52.22
2018-06-13T00:20:14.337Z,52.25
2018-06-13T00:22:43.722Z,52.26
2018-06-13T00:25:13.158Z,52.49
2018-06-13T00:27:42.500Z,52.36
2018-06-13T00:30:11.855Z,52.59
2018-06-13T00:32:41.321Z,52.57
2018-06-13T00:35:10.788Z,52.87
2018-06-13T00:37:40.171Z,52.86
2018-06-13T00:40:09.575Z,53.01
2018-06-13T00:42:39.006Z,52.97
2018-06-13T00:45:08.385Z,53.08
2018-06-13T00:47:37.741Z,52.94
2018-06-13T00:50:07.165Z,52.86
2018-06-13T00:52:37.251Z,53.14
2018-06-13T00:55:07.023Z,53.25
2018-06-13T00:57:36.430Z,53.52
2018-06-13T01:00:06.109Z,53.53
2018-06-13T01:02:35.566Z,53.95
2018-06-13T01:05:04.992Z,53.82
2018-06-13T01:07:34.465Z,54.18
2018-06-13T01:10:03.897Z,53.96
2018-06-13T01:12:33.275Z,54.50
2018-06-13T01:15:02.663Z,54.32
2018-06-13T01:17:32.052Z,54.38
2018-06-13T01:20:01.461Z,54.17
2018-06-13T01:22:30.824Z,54.45
2018-06-13T01:25:00.272Z,54.45
2018-06-13T01:27:29.675Z,54.54
2018-06-13T01:29:59.098Z,54.48
2018-06-13T01:32:28.506Z,54.42
2018-06-13T01:34:57.884Z,54.45
2018-06-13T01:37:27.259Z,54.99
2018-06-13T01:39:56.623Z,54.86
2018-06-13T01:42:25.986Z,55.01
2018-06-13T01:44:55.443Z,54.80
2018-06-13T01:47:24.865Z,54.84
2018-06-13T01:49:54.355Z,54.67
2018-06-13T01:52:23.736Z,54.77
2018-06-13T01:54:53.128Z,54.88
2018-06-13T01:57:22.544Z,54.99
2018-06-13T01:59:51.932Z,55.36
2018-06-13T02:02:21.317Z,54.86
2018-06-13T02:04:50.746Z,54.99
2018-06-13T02:07:20.193Z,54.69
2018-06-13T02:09:49.600Z,55.23
2018-06-13T02:12:19.063Z,55.39
2018-06-13T02:14:48.469Z,55.27
2018-06-13T02:17:17.854Z,55.08
2018-06-13T02:19:47.284Z,54.99
2018-06-13T02:22:16.734Z,54.95
2018-06-13T02:24:46.137Z,54.86
2018-06-13T02:27:15.561Z,54.82
2018-06-13T02:29:44.933Z,55.17
2018-06-13T02:32:14.367Z,55.65
2018-06-13T02:34:43.748Z,55.46
2018-06-13T02:37:13.186Z,55.71
2018-06-13T02:39:42.608Z,55.70
2018-06-13T02:42:12.025Z,55.69
2018-06-13T02:44:41.464Z,56.04
2018-06-13T02:47:10.795Z,56.15
2018-06-13T02:49:40.297Z,55.80
2018-06-13T02:52:09.737Z,55.57
2018-06-13T02:54:39.157Z,56.11
2018-06-13T02:57:08.502Z,55.81
2018-06-13T02:59:37.999Z,55.66
2018-06-13T03:02:07.384Z,55.89
2018-06-13T03:04:36.783Z,56.08
2018-06-13T03:07:06.486Z,56.64
2018-06-13T03:09:35.863Z,56.75
2018-06-13T03:12:05.452Z,56.96
2018-06-13T03:14:34.912Z,57.21
2018-06-13T03:17:04.292Z,57.04
2018-06-13T03:19:33.666Z,57.06
2018-06-13T03:22:03.055Z,57.05
2018-06-13T03:24:32.493Z,56.88
2018-06-13T03:27:01.876Z,56.69
2018-06-13T03:29:31.310Z,56.56
2018-06-13T03:32:00.738Z,56.56
2018-06-13T03:34:30.236Z,56.56
2018-06-13T03:36:59.656Z,56.58
2018-06-13T03:39:29.063Z,56.62
2018-06-13T03:41:58.502Z,56.67
2018-06-13T03:44:27.914Z,56.48
2018-06-13T03:46:57.333Z,56.36
2018-06-13T03:49:26.809Z,56.47
2018-06-13T03:51:56.783Z,56.51
2018-06-13T03:54:26.222Z,56.31
2018-06-13T03:56:55.636Z,56.47
2018-06-13T03:59:25.031Z,56.68
2018-06-13T04:01:54.435Z,56.56
2018-06-13T04:04:23.839Z,56.69
2018-06-13T04:06:53.237Z,56.67
2018-06-13T04:09:22.620Z,56.82
2018-06-13T04:11:52.044Z,56.82
2018-06-13T04:14:21.569Z,57.16
2018-06-13T04:16:50.943Z,57.22
2018-06-13T04:19:20.392Z,56.91
2018-06-13T04:21:49.807Z,56.81
2018-06-13T04:24:19.186Z,57.56
2018-06-13T04:26:49.548Z,57.33
2018-06-13T04:29:18.907Z,57.11
2018-06-13T04:31:48.332Z,57.26
2018-06-13T04:34:17.725Z,57.05
2018-06-13T04:36:47.078Z,56.71
2018-06-13T04:39:16.466Z,56.37
2018-06-13T04:41:45.919Z,56.36
2018-06-13T04:44:15.315Z,56.39
2018-06-13T04:46:44.689Z,56.02
2018-06-13T04:49:14.078Z,56.21
2018-06-13T04:51:43.544Z,56.38
2018-06-13T04:54:12.706Z,55.46
2018-06-13T04:56:42.139Z,55.50
2018-06-13T04:59:11.648Z,54.67
2018-06-13T05:01:41.033Z,54.27
2018-06-13T05:04:10.426Z,54.83
2018-06-13T05:06:39.813Z,54.56
2018-06-13T05:09:09.461Z,54.36
2018-06-13T05:11:38.816Z,54.08
2018-06-13T05:14:08.223Z,54.42
2018-06-13T05:16:37.644Z,54.47
2018-06-13T05:19:07.058Z,53.40
2018-06-13T05:21:36.491Z,52.64
2018-06-13T05:24:05.960Z,52.04
2018-06-13T05:26:35.377Z,51.65
2018-06-13T05:29:04.872Z,52.97
2018-06-13T05:31:34.262Z,53.12
2018-06-13T05:34:03.733Z,53.96
2018-06-13T05:36:33.175Z,53.00
2018-06-13T05:39:02.575Z,53.50
2018-06-13T05:41:31.996Z,53.33
2018-06-13T05:44:01.183Z,53.02
2018-06-13T05:46:30.614Z,52.23
2018-06-13T05:49:00.014Z,51.67
2018-06-13T05:51:29.457Z,51.41
2018-06-13T05:53:58.883Z,50.76
2018-06-13T05:56:28.256Z,50.86
2018-06-13T05:58:57.590Z,50.33
2018-06-13T06:01:27.013Z,49.71
2018-06-13T06:03:56.390Z,50.14
2018-06-13T06:06:25.840Z,51.17
2018-06-13T06:08:55.149Z,51.20
2018-06-13T06:11:24.513Z,51.78
2018-06-13T06:13:53.900Z,51.98
2018-06-13T06:16:23.289Z,51.11
2018-06-13T06:18:52.808Z,51.11
2018-06-13T06:21:22.233Z,50.70
2018-06-13T06:23:51.643Z,50.73
2018-06-13T06:26:21.086Z,51.01
2018-06-13T06:28:50.512Z,50.61
2018-06-13T06:31:19.848Z,50.68
2018-06-13T06:33:49.189Z,50.89
2018-06-13T06:36:18.535Z,51.14
2018-06-13T06:38:47.951Z,51.80
2018-06-13T06:41:17.336Z,50.68
2018-06-13T06:43:46.780Z,50.38
2018-06-13T06:46:16.168Z,49.27
2018-06-13T06:48:45.505Z,48.78
2018-06-13T06:51:14.870Z,48.71
2018-06-13T06:53:44.211Z,47.26
2018-06-13T06:56:13.602Z,48.08
2018-06-13T06:58:42.946Z,49.83
2018-06-13T07:01:12.351Z,50.53
2018-06-13T07:03:41.785Z,50.80
2018-06-13T07:06:11.212Z,49.58
2018-06-13T07:08:40.644Z,49.94
2018-06-13T07:11:10.054Z,49.77
2018-06-13T07:13:39.490Z,50.31
2018-06-13T07:16:09.238Z,50.05
2018-06-13T07:18:38.693Z,50.10
2018-06-13T07:21:08.047Z,49.50
2018-06-13T07:23:37.429Z,47.64
2018-06-13T07:26:06.920Z,46.42
2018-06-13T07:28:36.296Z,47.11
2018-06-13T07:31:05.664Z,48.32
2018-06-13T07:33:35.072Z,49.46
2018-06-13T07:36:04.498Z,50.83
2018-06-13T07:38:33.869Z,50.35
2018-06-13T07:41:03.258Z,51.04
2018-06-13T07:43:32.656Z,50.05
2018-06-13T07:46:02.072Z,49.87
2018-06-13T07:48:31.521Z,49.53
2018-06-13T07:51:00.890Z,50.31
2018-06-13T07:53:30.274Z,47.55
2018-06-13T07:55:59.705Z,46.96
2018-06-13T07:58:29.050Z,47.00
2018-06-13T08:00:58.455Z,49.13
2018-06-13T08:03:27.881Z,50.63
2018-06-13T08:05:57.283Z,51.61
2018-06-13T08:08:26.758Z,51.95
2018-06-13T08:10:56.160Z,52.22
2018-06-13T08:13:25.552Z,51.33
2018-06-13T08:15:54.947Z,51.65
2018-06-13T08:18:24.359Z,51.50
2018-06-13T08:20:53.734Z,50.79
2018-06-13T08:23:23.181Z,49.90
2018-06-13T08:25:52.633Z,48.50
2018-06-13T08:28:21.967Z,44.51
2018-06-13T08:30:52.054Z,43.46
2018-06-13T08:33:21.560Z,44.56
2018-06-13T08:35:51.580Z,47.26
2018-06-13T08:38:21.485Z,48.02
2018-06-13T08:40:51.658Z,47.48
2018-06-13T08:43:21.997Z,48.86
2018-06-13T08:45:52.059Z,49.73
2018-06-13T08:48:21.927Z,49.46
2018-06-13T08:50:51.699Z,49.84
2018-06-13T08:53:21.607Z,49.19
2018-06-13T08:55:51.090Z,48.54
2018-06-13T08:58:20.852Z,48.79
2018-06-13T09:00:50.376Z,49.75
2018-06-13T09:03:19.743Z,49.21
2018-06-13T09:05:49.070Z,48.13
2018-06-13T09:08:18.424Z,48.13
2018-06-13T09:10:47.747Z,48.13
2018-06-13T09:13:17.075Z,49.34
2018-06-13T09:15:46.438Z,49.45
2018-06-13T09:18:15.796Z,52.62
2018-06-13T09:20:45.106Z,53.68
2018-06-13T09:23:14.464Z,53.92
2018-06-13T09:25:43.804Z,53.91
2018-06-13T09:28:13.203Z,53.14
2018-06-13T09:30:42.758Z,53.46
2018-06-13T09:33:12.202Z,53.41
2018-06-13T09:35:41.600Z,52.21
2018-06-13T09:38:10.949Z,50.81
2018-06-13T09:40:40.302Z,51.56
2018-06-13T09:43:09.630Z,51.26
2018-06-13T09:45:39.015Z,50.57
2018-06-13T09:48:08.380Z,50.41
2018-06-13T09:50:37.901Z,50.27
2018-06-13T09:53:07.271Z,48.61
2018-06-13T09:55:36.679Z,48.24
2018-06-13T09:58:06.496Z,47.54
2018-06-13T10:00:41.177Z,47.50
2018-06-13T10:03:10.554Z,50.22
2018-06-13T10:05:39.882Z,51.54
2018-06-13T10:08:09.235Z,51.99
2018-06-13T10:10:38.601Z,52.09
2018-06-13T10:13:07.939Z,51.95
2018-06-13T10:15:37.343Z,51.05
2018-06-13T10:18:06.771Z,50.27
2018-06-13T10:20:36.095Z,49.33
2018-06-13T10:23:05.715Z,47.60
2018-06-13T10:25:35.044Z,47.19
2018-06-13T10:28:04.347Z,47.39
2018-06-13T10:30:33.844Z,48.36
2018-06-13T10:33:03.252Z,49.69
2018-06-13T10:35:32.653Z,49.64
2018-06-13T10:38:02.000Z,49.99
2018-06-13T10:40:31.320Z,50.66
2018-06-13T10:43:00.730Z,49.53
2018-06-13T10:45:30.108Z,49.10
2018-06-13T10:47:59.456Z,48.63
2018-06-13T10:50:29.049Z,48.34
2018-06-13T10:52:58.492Z,48.56
2018-06-13T10:55:27.888Z,48.03
2018-06-13T10:57:57.248Z,47.83
2018-06-13T11:00:26.649Z,47.84
2018-06-13T11:02:56.011Z,47.85
2018-06-13T11:05:25.452Z,46.53
2018-06-13T11:07:54.843Z,44.90
2018-06-13T11:10:24.165Z,45.40
2018-06-13T11:12:53.596Z,45.90
2018-06-13T11:15:23.004Z,46.58
2018-06-13T11:17:52.311Z,47.43
2018-06-13T11:20:21.697Z,47.59
2018-06-13T11:22:51.029Z,48.17
2018-06-13T11:25:20.419Z,48.90
2018-06-13T11:27:49.743Z,48.84
2018-06-13T11:30:19.198Z,49.19
2018-06-13T11:32:48.656Z,49.40
2018-06-13T11:35:17.972Z,49.43
2018-06-13T11:37:47.301Z,49.43
2018-06-13T11:40:16.687Z,49.83
2018-06-13T11:42:46.061Z,49.34
2018-06-13T11:45:15.408Z,49.17
2018-06-13T11:47:44.827Z,49.25
2018-06-13T11:50:14.201Z,48.33
2018-06-13T11:52:43.648Z,48.06
2018-06-13T11:55:13.042Z,47.61
2018-06-13T11:57:42.378Z,47.63
2018-06-13T12:00:11.742Z,48.28
2018-06-13T12:02:41.070Z,48.37
2018-06-13T12:05:10.455Z,47.23
2018-06-13T12:07:39.784Z,46.63
2018-06-13T12:10:09.136Z,46.16
2018-06-13T12:12:38.467Z,45.83
2018-06-13T12:15:07.940Z,46.82
2018-06-13T12:17:37.257Z,46.18
2018-06-13T12:20:06.652Z,45.95
2018-06-13T12:22:36.072Z,45.60
2018-06-13T12:25:05.360Z,45.48
2018-06-13T12:27:34.739Z,45.91
2018-06-13T12:30:04.121Z,45.59
2018-06-13T12:32:33.561Z,46.59
2018-06-13T12:35:03.021Z,46.37
2018-06-13T12:37:32.358Z,45.72
2018-06-13T12:40:01.748Z,45.96
2018-06-13T12:42:31.088Z,46.63
2018-06-13T12:45:00.435Z,47.02
2018-06-13T12:47:29.852Z,47.96
2018-06-13T12:49:59.193Z,48.55
2018-06-13T12:52:28.531Z,47.54
2018-06-13T12:54:57.626Z,47.74
2018-06-13T12:57:26.969Z,47.21
2018-06-13T12:59:56.421Z,47.13
2018-06-13T13:02:26.432Z,47.42
2018-06-13T13:04:55.786Z,48.19
2018-06-13T13:07:25.214Z,49.14
2018-06-13T13:09:54.547Z,49.71
2018-06-13T13:12:23.871Z,49.84
2018-06-13T13:14:53.217Z,48.70
2018-06-13T13:17:22.597Z,48.51
2018-06-13T13:19:51.918Z,47.92
2018-06-13T13:22:21.289Z,49.17
2018-06-13T13:24:50.635Z,49.77
2018-06-13T13:27:19.973Z,50.35
2018-06-13T13:29:49.312Z,50.68
2018-06-13T13:32:18.646Z,50.86
2018-06-13T13:34:47.985Z,51.08
2018-06-13T13:37:17.356Z,51.07
2018-06-13T13:39:46.691Z,49.67
2018-06-13T13:42:16.017Z,50.25
2018-06-13T13:44:45.480Z,49.95
2018-06-13T13:47:14.821Z,48.99
2018-06-13T13:49:44.180Z,50.48
2018-06-13T13:52:13.514Z,48.91
2018-06-13T13:54:42.850Z,47.97
2018-06-13T13:57:12.188Z,47.74
2018-06-13T13:59:41.502Z,46.57
2018-06-13T14:02:10.878Z,47.00
2018-06-13T14:04:40.210Z,47.34
2018-06-13T14:07:09.609Z,47.78
2018-06-13T14:09:38.922Z,47.28
2018-06-13T14:12:07.933Z,47.74
2018-06-13T14:14:37.262Z,48.28
2018-06-13T14:17:06.607Z,49.71
2018-06-13T14:19:35.950Z,49.91
2018-06-13T14:22:05.362Z,48.75
2018-06-13T14:24:34.632Z,47.61
2018-06-13T14:27:04.036Z,47.12
2018-06-13T14:29:33.451Z,46.43
2018-06-13T14:32:02.845Z,45.59
2018-06-13T14:34:32.184Z,45.81
2018-06-13T14:37:01.507Z,46.41
2018-06-13T14:39:30.855Z,46.90
2018-06-13T14:42:00.174Z,46.94
2018-06-13T14:44:29.545Z,46.84
2018-06-13T14:46:58.874Z,45.77
2018-06-13T14:49:28.247Z,45.88
2018-06-13T14:51:57.593Z,46.39
2018-06-13T14:54:26.920Z,46.18
2018-06-13T14:56:56.264Z,46.24
2018-06-13T14:59:25.580Z,46.11
2018-06-13T15:01:54.984Z,46.53
2018-06-13T15:04:28.418Z,46.01
2018-06-13T15:06:57.772Z,46.44
2018-06-13T15:09:27.088Z,45.98
2018-06-13T15:11:56.477Z,46.39
2018-06-13T15:14:25.892Z,46.23
2018-06-13T15:16:55.324Z,46.44
2018-06-13T15:19:24.666Z,46.75
2018-06-13T15:21:54.229Z,46.44
2018-06-13T15:24:23.643Z,47.07
2018-06-13T15:26:53.024Z,46.96
2018-06-13T15:29:22.347Z,46.45
2018-06-13T15:31:51.720Z,47.08
2018-06-13T15:34:21.056Z,48.03
2018-06-13T15:36:50.394Z,48.11
2018-06-13T15:39:19.739Z,47.61
2018-06-13T15:41:49.079Z,47.59
2018-06-13T15:44:18.394Z,47.71
2018-06-13T15:46:47.718Z,47.78
2018-06-13T15:49:17.067Z,47.97
2018-06-13T15:51:46.392Z,48.18
2018-06-13T15:54:15.716Z,47.48
2018-06-13T15:56:45.097Z,47.27
2018-06-13T15:59:14.445Z,47.59
2018-06-13T16:01:43.791Z,48.15
2018-06-13T16:04:13.115Z,48.15
2018-06-13T16:06:42.460Z,47.60
2018-06-13T16:09:12.383Z,47.63
2018-06-13T16:11:41.741Z,47.02
2018-06-13T16:14:11.212Z,47.11
2018-06-13T16:16:40.506Z,47.00
2018-06-13T16:19:09.829Z,46.66
2018-06-13T16:21:39.177Z,46.68
2018-06-13T16:24:08.500Z,46.11
2018-06-13T16:26:37.835Z,46.38
2018-06-13T16:29:07.207Z,46.07
2018-06-13T16:31:36.558Z,46.29
2018-06-13T16:34:05.854Z,46.37
2018-06-13T16:36:35.195Z,46.98
2018-06-13T16:39:06.537Z,46.74
2018-06-13T16:41:35.601Z,46.29
2018-06-13T16:44:04.912Z,46.54
2018-06-13T16:46:34.248Z,46.39
2018-06-13T16:49:03.580Z,46.64
2018-06-13T16:51:48.681Z,47.20
2018-06-13T16:54:33.840Z,46.86
2018-06-13T16:57:03.158Z,47.39
2018-06-13T16:59:32.486Z,47.30
2018-06-13T17:02:01.840Z,47.33
2018-06-13T17:04:31.158Z,47.37
2018-06-13T17:07:00.500Z,46.92
2018-06-13T17:09:29.839Z,46.89
2018-06-13T17:11:59.182Z,46.53
2018-06-13T17:14:28.595Z,46.48
2018-06-13T17:16:57.704Z,46.51
2018-06-13T17:19:27.107Z,46.38
2018-06-13T17:21:56.490Z,46.70
2018-06-13T17:24:25.885Z,46.89
2018-06-13T17:26:55.224Z,47.02
2018-06-13T17:29:24.682Z,47.04
2018-06-13T17:31:54.062Z,47.59
2018-06-13T17:34:23.441Z,47.50
2018-06-13T17:36:52.878Z,47.53
2018-06-13T17:39:22.290Z,47.59
2018-06-13T17:41:51.674Z,47.60
2018-06-13T17:44:21.096Z,47.65
2018-06-13T17:46:50.478Z,47.57
2018-06-13T17:49:19.892Z,47.61
2018-06-13T17:51:49.356Z,47.53
2018-06-13T17:54:18.782Z,47.89
2018-06-13T17:56:48.123Z,47.83
2018-06-13T17:59:17.587Z,47.61
2018-06-13T18:01:47.086Z,47.69
2018-06-13T18:04:16.497Z,48.28
2018-06-13T18:06:45.933Z,47.19
2018-06-13T18:09:15.350Z,47.22
2018-06-13T18:11:44.836Z,46.72
2018-06-13T18:14:14.246Z,46.17
2018-06-13T18:16:43.726Z,46.56
2018-06-13T18:19:13.236Z,46.47
2018-06-13T18:21:42.726Z,46.74
2018-06-13T18:24:12.172Z,46.83
2018-06-13T18:26:41.729Z,46.73
2018-06-13T18:29:11.252Z,47.04
2018-06-13T18:31:40.725Z,47.05
2018-06-13T18:34:10.189Z,47.35
2018-06-13T18:36:39.667Z,47.79
2018-06-13T18:39:11.057Z,47.93
2018-06-13T18:41:40.514Z,47.96
2018-06-13T18:44:09.913Z,47.85
2018-06-13T18:46:39.414Z,48.17
2018-06-13T18:49:08.955Z,48.01
2018-06-13T18:51:38.377Z,48.33
2018-06-13T18:54:07.816Z,48.80
2018-06-13T18:56:37.300Z,48.69
2018-06-13T18:59:06.762Z,48.75
2018-06-13T19:01:36.163Z,49.44
2018-06-13T19:04:05.634Z,49.28
2018-06-13T19:06:35.042Z,49.17
2018-06-13T19:09:06.696Z,49.48
2018-06-13T19:11:36.145Z,49.31
2018-06-13T19:14:06.076Z,49.41
2018-06-13T19:16:35.507Z,49.70
2018-06-13T19:19:05.000Z,49.92
2018-06-13T19:21:34.482Z,49.83
2018-06-13T19:24:03.887Z,49.99
2018-06-13T19:26:33.343Z,50.18
2018-06-13T19:29:02.804Z,49.79
2018-06-13T19:31:32.244Z,49.89
2018-06-13T19:34:01.695Z,49.90
2018-06-13T19:36:31.201Z,50.22
2018-06-13T19:39:00.702Z,49.93
2018-06-13T19:41:30.133Z,50.25
2018-06-13T19:43:59.679Z,50.17
2018-06-13T19:46:29.350Z,50.59
2018-06-13T19:48:58.794Z,50.85
2018-06-13T19:51:28.311Z,50.74
2018-06-13T19:54:02.986Z,51.15
2018-06-13T19:56:33.150Z,51.63
2018-06-13T19:59:02.640Z,51.71
2018-06-13T20:01:32.109Z,51.76
2018-06-13T20:04:06.759Z,51.69
2018-06-13T20:06:39.253Z,51.82
2018-06-13T20:09:10.933Z,51.91
2018-06-13T20:11:40.611Z,51.95
2018-06-13T20:14:15.070Z,51.87
2018-06-13T20:16:52.123Z,51.76
2018-06-13T20:19:26.692Z,51.67
2018-06-13T20:21:58.067Z,51.77
2018-06-13T20:24:27.520Z,51.67
2018-06-13T20:27:02.165Z,51.80
2018-06-13T20:29:36.900Z,51.63
2018-06-13T20:32:06.371Z,51.68
2018-06-13T20:34:35.721Z,51.74
2018-06-13T20:37:05.187Z,51.66
2018-06-13T20:39:34.720Z,51.72
2018-06-13T20:42:04.164Z,51.84
2018-06-13T20:44:33.530Z,51.78
2018-06-13T20:47:02.937Z,51.84
2018-06-13T20:49:32.356Z,51.77
2018-06-13T20:52:01.789Z,51.72
2018-06-13T20:54:31.171Z,51.53
2018-06-13T20:57:00.569Z,51.80
2018-06-13T20:59:29.942Z,51.54
2018-06-13T21:01:59.374Z,51.46
2018-06-13T21:04:28.879Z,51.56
2018-06-13T21:06:58.220Z,51.59
2018-06-13T21:09:27.610Z,51.40
2018-06-13T21:11:57.027Z,51.54
2018-06-13T21:14:26.419Z,51.35
2018-06-13T21:16:55.792Z,51.04
2018-06-13T21:19:25.206Z,51.32
2018-06-13T21:21:54.568Z,51.48
2018-06-13T21:24:23.934Z,52.14
2018-06-13T21:26:53.320Z,52.25
2018-06-13T21:29:22.729Z,52.33
2018-06-13T21:31:52.101Z,52.36
2018-06-13T21:34:21.574Z,52.00
2018-06-13T21:36:51.024Z,52.29
2018-06-13T21:39:20.409Z,51.76
2018-06-13T21:41:49.868Z,51.88
2018-06-13T21:44:19.416Z,51.91
2018-06-13T21:46:48.807Z,51.70
2018-06-13T21:49:17.918Z,51.90
2018-06-13T21:51:47.251Z,51.80
2018-06-13T21:54:16.603Z,51.91
2018-06-13T21:56:45.977Z,52.04
2018-06-13T21:59:15.361Z,52.12
2018-06-13T22:01:44.739Z,51.82
2018-06-13T22:04:14.107Z,51.79
2018-06-13T22:06:43.549Z,51.95
2018-06-13T22:09:13.020Z,51.86
2018-06-13T22:11:47.692Z,51.84
2018-06-13T22:14:17.052Z,51.70
2018-06-13T22:16:46.458Z,52.00
2018-06-13T22:19:15.897Z,52.08
2018-06-13T22:21:45.276Z,52.12
2018-06-13T22:24:14.698Z,51.91
2018-06-13T22:26:44.222Z,52.05
2018-06-13T22:29:13.693Z,52.22
2018-06-13T22:31:43.131Z,52.08
2018-06-13T22:34:12.592Z,52.13
2018-06-13T22:36:42.077Z,52.07
2018-06-13T22:39:12.948Z,52.34
2018-06-13T22:41:42.726Z,52.17
2018-06-13T22:44:12.153Z,52.20
2018-06-13T22:46:41.610Z,52.54
2018-06-13T22:49:10.983Z,52.92
2018-06-13T22:51:40.338Z,53.10
2018-06-13T22:54:09.688Z,53.38
2018-06-13T22:56:39.200Z,53.55
2018-06-13T22:59:08.646Z,53.85
2018-06-13T23:01:38.027Z,54.19
2018-06-13T23:04:07.405Z,54.48
2018-06-13T23:06:36.880Z,54.44
2018-06-13T23:09:08.529Z,54.66
2018-06-13T23:11:37.997Z,54.92
2018-06-13T23:14:07.441Z,54.83
2018-06-13T23:16:36.851Z,55.16
2018-06-13T23:19:06.245Z,55.62
2018-06-13T23:21:35.686Z,55.63
2018-06-13T23:24:05.100Z,55.84
2018-06-13T23:26:34.512Z,56.08
2018-06-13T23:29:03.918Z,56.21
2018-06-13T23:31:33.349Z,56.55
2018-06-13T23:34:02.702Z,56.92
2018-06-13T23:36:32.180Z,57.02
2018-06-13T23:50:50.055Z,57.83
2018-06-13T23:53:19.493Z,58.10
2018-06-13T23:55:48.884Z,58.08
2018-06-13T23:58:18.251Z,58.32
